createdAt,value
2023-03-04T00:00:04.171Z,54.95
2023-03-04T00:00:54.284Z,47.73
2023-03-04T00:01:44.327Z,53.51
2023-03-04T00:02:34.372Z,47.15
2023-03-04T00:03:24.441Z,49.74
2023-03-04T00:04:14.484Z,52.41
2023-03-04T00:05:04.516Z,50.95
2023-03-04T00:05:54.592Z,52.42
2023-03-04T00:06:44.649Z,57.09
2023-03-04T00:07:34.878Z,53.19
2023-03-04T00:08:24.914Z,53.61
2023-03-04T00:09:14.997Z,53.60
2023-03-04T00:10:05.034Z,53.82
2023-03-04T00:10:55.086Z,55.17
2023-03-04T00:11:45.150Z,54.95
2023-03-04T00:12:35.220Z,55.65
2023-03-04T00:13:25.259Z,59.72
2023-03-04T00:14:15.368Z,49.18
2023-03-04T00:15:05.440Z,52.01
2023-03-04T00:15:55.415Z,48.40
2023-03-04T00:16:45.739Z,50.17
2023-03-04T00:17:35.740Z,56.13
2023-03-04T00:18:25.776Z,54.36
2023-03-04T00:19:16.119Z,55.51
2023-03-04T00:20:06.126Z,53.52
2023-03-04T00:20:56.201Z,53.20
2023-03-04T00:21:46.523Z,59.10
2023-03-04T00:22:36.590Z,53.53
2023-03-04T00:23:26.612Z,53.57
2023-03-04T00:24:16.963Z,52.33
2023-03-04T00:25:06.977Z,57.72
2023-03-04T00:25:57.068Z,50.72
2023-03-04T00:26:47.074Z,54.29
2023-03-04T00:27:37.151Z,51.36
2023-03-04T00:28:27.211Z,54.08
2023-03-04T00:29:17.307Z,59.01
2023-03-04T00:30:07.349Z,59.99
2023-03-04T00:30:57.356Z,55.60
2023-03-04T00:31:47.427Z,57.77
2023-03-04T00:32:37.550Z,55.54
2023-03-04T00:33:27.677Z,58.41
2023-03-04T00:34:17.761Z,55.25
2023-03-04T00:35:07.777Z,57.72
2023-03-04T00:35:57.930Z,56.53
2023-03-04T00:36:47.890Z,58.32
2023-03-04T00:37:37.946Z,52.51
2023-03-04T00:38:28.006Z,52.63
2023-03-04T00:39:18.089Z,60.10
2023-03-04T00:40:08.108Z,51.93
2023-03-04T00:40:58.200Z,51.02
2023-03-04T00:41:48.211Z,45.67
2023-03-04T00:42:38.547Z,48.21
2023-03-04T00:43:28.564Z,48.40
2023-03-04T00:44:18.651Z,48.98
2023-03-04T00:45:08.696Z,47.09
2023-03-04T00:45:58.776Z,44.76
2023-03-04T00:46:48.771Z,46.92
2023-03-04T00:47:38.842Z,49.71
2023-03-04T00:48:28.865Z,47.01
2023-03-04T00:49:18.971Z,48.43
2023-03-04T00:50:08.978Z,48.04
2023-03-04T00:50:59.064Z,47.18
2023-03-04T00:51:49.338Z,49.29
2023-03-04T00:52:39.398Z,50.58
2023-03-04T00:53:29.466Z,46.24
2023-03-04T00:54:19.815Z,52.73
2023-03-04T00:55:09.835Z,44.19
2023-03-04T00:55:59.909Z,46.78
2023-03-04T00:56:49.937Z,45.60
2023-03-04T00:57:40.000Z,49.56
2023-03-04T00:58:30.066Z,48.33
2023-03-04T00:59:20.159Z,51.07
2023-03-04T01:00:10.193Z,44.35
2023-03-04T01:01:00.303Z,45.45
2023-03-04T01:01:50.278Z,46.73
2023-03-04T01:02:40.405Z,49.77
2023-03-04T01:03:30.527Z,47.38
2023-03-04T01:04:20.607Z,46.41
2023-03-04T01:05:10.656Z,47.89
2023-03-04T01:06:00.670Z,47.32
2023-03-04T01:06:50.751Z,47.64
2023-03-04T01:07:40.810Z,42.89
2023-03-04T01:08:30.871Z,45.29
2023-03-04T01:09:20.969Z,45.44
2023-03-04T01:10:10.982Z,46.07
2023-03-04T01:11:01.081Z,45.63
2023-03-04T01:11:51.097Z,43.95
2023-03-04T01:12:41.340Z,46.30
2023-03-04T01:13:31.375Z,40.80
2023-03-04T01:14:21.462Z,40.72
2023-03-04T01:15:11.473Z,41.66
2023-03-04T01:16:01.543Z,40.63
2023-03-04T01:16:51.702Z,39.39
2023-03-04T01:17:41.705Z,37.12
2023-03-04T01:18:31.702Z,40.52
2023-03-04T01:19:21.773Z,41.62
2023-03-04T01:20:11.806Z,39.81
2023-03-04T01:21:01.909Z,40.34
2023-03-04T01:21:52.171Z,40.18
2023-03-04T01:22:42.239Z,41.50
2023-03-04T01:23:32.295Z,39.11
2023-03-04T01:24:22.653Z,39.14
2023-03-04T01:25:12.669Z,40.45
2023-03-04T01:26:02.743Z,40.45
2023-03-04T01:26:53.079Z,41.61
2023-03-04T01:27:43.129Z,40.86
2023-03-04T01:28:33.191Z,44.56
2023-03-04T01:29:23.510Z,44.89
2023-03-04T01:30:13.510Z,44.71
2023-03-04T01:31:03.740Z,43.62
2023-03-04T01:31:53.622Z,43.42
2023-03-04T01:32:43.694Z,41.64
2023-03-04T01:33:33.738Z,40.07
2023-03-04T01:34:23.827Z,40.50
2023-03-04T01:35:13.858Z,43.26
2023-03-04T01:36:03.923Z,41.30
2023-03-04T01:36:53.985Z,36.04
2023-03-04T01:37:44.071Z,40.42
2023-03-04T01:38:34.219Z,37.04
2023-03-04T01:39:24.293Z,37.82
2023-03-04T01:40:14.310Z,40.51
2023-03-04T01:41:04.376Z,40.25
2023-03-04T01:41:54.436Z,40.46
2023-03-04T01:42:44.512Z,41.16
2023-03-04T01:43:34.575Z,39.07
2023-03-04T01:44:24.658Z,37.88
2023-03-04T01:45:14.678Z,37.85
2023-03-04T01:46:04.768Z,39.28
2023-03-04T01:46:54.810Z,41.87
2023-03-04T01:47:44.999Z,43.52
2023-03-04T01:48:35.070Z,41.78
2023-03-04T01:49:25.124Z,44.24
2023-03-04T01:50:15.140Z,41.67
2023-03-04T01:51:05.210Z,50.08
2023-03-04T01:51:55.240Z,49.28
2023-03-04T01:52:45.303Z,40.55
2023-03-04T01:53:35.360Z,40.57
2023-03-04T01:54:25.448Z,46.93
2023-03-04T01:55:15.470Z,44.79
2023-03-04T01:56:05.533Z,40.15
2023-03-04T01:56:55.821Z,41.93
2023-03-04T01:57:45.889Z,45.12
2023-03-04T01:58:35.952Z,39.24
2023-03-04T01:59:26.250Z,47.06
2023-03-04T02:00:16.268Z,46.84
2023-03-04T02:01:06.351Z,46.14
2023-03-04T02:01:56.439Z,41.68
2023-03-04T02:02:46.441Z,46.65
2023-03-04T02:03:36.513Z,43.53
2023-03-04T02:04:26.650Z,46.30
2023-03-04T02:05:16.597Z,46.20
2023-03-04T02:06:06.635Z,50.16
2023-03-04T02:06:56.699Z,44.25
2023-03-04T02:07:46.767Z,46.78
2023-03-04T02:08:37.088Z,45.33
2023-03-04T02:09:27.178Z,50.19
2023-03-04T02:10:17.204Z,45.30
2023-03-04T02:11:07.276Z,46.25
2023-03-04T02:11:57.339Z,40.77
2023-03-04T02:12:47.404Z,47.15
2023-03-04T02:13:37.476Z,46.06
2023-03-04T02:14:27.566Z,47.19
2023-03-04T02:15:17.600Z,47.47
2023-03-04T02:16:07.776Z,48.76
2023-03-04T02:16:57.684Z,51.75
2023-03-04T02:17:47.982Z,44.21
2023-03-04T02:18:38.036Z,48.92
2023-03-04T02:19:28.134Z,43.30
2023-03-04T02:20:18.416Z,46.40
2023-03-04T02:21:08.465Z,44.09
2023-03-04T02:21:58.529Z,49.18
2023-03-04T02:22:48.866Z,51.74
2023-03-04T02:23:38.880Z,52.35
2023-03-04T02:24:28.970Z,53.27
2023-03-04T02:25:18.989Z,48.04
2023-03-04T02:26:09.086Z,48.53
2023-03-04T02:26:59.102Z,46.52
2023-03-04T02:27:49.166Z,44.61
2023-03-04T02:28:39.226Z,48.43
2023-03-04T02:29:29.637Z,47.40
2023-03-04T02:30:19.355Z,45.54
2023-03-04T02:31:09.449Z,48.75
2023-03-04T02:31:59.832Z,49.33
2023-03-04T02:32:49.736Z,55.25
2023-03-04T02:33:39.799Z,54.82
2023-03-04T02:34:30.114Z,52.11
2023-03-04T02:35:20.209Z,47.42
2023-03-04T02:36:10.191Z,46.85
2023-03-04T02:37:00.195Z,52.19
2023-03-04T02:37:50.258Z,52.50
2023-03-04T02:38:40.289Z,55.31
2023-03-04T02:39:30.384Z,49.42
2023-03-04T02:40:20.388Z,51.16
2023-03-04T02:41:10.442Z,51.23
2023-03-04T02:42:00.487Z,50.20
2023-03-04T02:42:50.571Z,54.23
2023-03-04T02:43:40.619Z,55.19
2023-03-04T02:44:30.709Z,55.88
2023-03-04T02:45:20.720Z,55.16
2023-03-04T02:46:10.843Z,56.20
2023-03-04T02:47:00.835Z,57.43
2023-03-04T02:47:50.900Z,56.17
2023-03-04T02:48:40.935Z,57.96
2023-03-04T02:49:30.979Z,54.00
2023-03-04T02:50:21.006Z,56.85
2023-03-04T02:51:11.065Z,59.03
2023-03-04T02:52:01.152Z,56.22
2023-03-04T02:52:51.201Z,57.25
2023-03-04T02:53:41.262Z,57.34
2023-03-04T02:54:31.354Z,54.84
2023-03-04T02:55:21.368Z,55.78
2023-03-04T02:56:11.436Z,55.56
2023-03-04T02:57:01.714Z,57.32
2023-03-04T02:57:51.752Z,55.06
2023-03-04T02:58:41.828Z,60.83
2023-03-04T02:59:32.153Z,58.59
2023-03-04T03:00:22.182Z,58.15
2023-03-04T03:01:12.244Z,55.46
2023-03-04T03:02:02.636Z,54.10
2023-03-04T03:02:52.670Z,53.74
2023-03-04T03:03:42.642Z,45.42
2023-03-04T03:04:32.731Z,51.24
2023-03-04T03:05:22.776Z,48.58
2023-03-04T03:06:12.808Z,52.67
2023-03-04T03:07:02.898Z,49.83
2023-03-04T03:07:52.954Z,50.51
2023-03-04T03:08:43.017Z,52.58
2023-03-04T03:09:33.081Z,53.44
2023-03-04T03:10:23.112Z,50.57
2023-03-04T03:11:13.445Z,51.10
2023-03-04T03:12:03.484Z,51.14
2023-03-04T03:12:53.566Z,55.46
2023-03-04T03:13:43.600Z,56.53
2023-03-04T03:14:33.687Z,55.83
2023-03-04T03:15:23.702Z,48.47
2023-03-04T03:16:13.852Z,49.91
2023-03-04T03:17:03.808Z,52.12
2023-03-04T03:17:53.896Z,54.17
2023-03-04T03:18:43.919Z,55.47
2023-03-04T03:19:34.017Z,54.81
2023-03-04T03:20:24.305Z,52.02
2023-03-04T03:21:14.380Z,54.63
2023-03-04T03:22:04.449Z,54.00
2023-03-04T03:22:54.808Z,50.86
2023-03-04T03:23:44.845Z,54.32
2023-03-04T03:24:34.918Z,55.02
2023-03-04T03:25:24.950Z,51.67
2023-03-04T03:26:14.979Z,49.17
2023-03-04T03:27:05.025Z,50.25
2023-03-04T03:27:55.091Z,50.22
2023-03-04T03:28:45.155Z,48.76
2023-03-04T03:29:35.249Z,54.33
2023-03-04T03:30:25.289Z,50.02
2023-03-04T03:31:15.372Z,49.47
2023-03-04T03:32:05.733Z,53.84
2023-03-04T03:32:55.688Z,52.38
2023-03-04T03:33:45.759Z,52.93
2023-03-04T03:34:36.066Z,49.06
2023-03-04T03:35:26.155Z,52.51
2023-03-04T03:36:16.198Z,51.24
2023-03-04T03:37:06.208Z,54.22
2023-03-04T03:37:56.268Z,56.01
2023-03-04T03:38:46.369Z,53.16
2023-03-04T03:39:36.409Z,54.49
2023-03-04T03:40:26.424Z,48.87
2023-03-04T03:41:16.495Z,50.80
2023-03-04T03:42:06.579Z,50.93
2023-03-04T03:42:56.644Z,43.00
2023-03-04T03:43:46.890Z,51.38
2023-03-04T03:44:36.967Z,46.42
2023-03-04T03:45:27.042Z,46.52
2023-03-04T03:46:17.032Z,46.79
2023-03-04T03:47:07.111Z,48.50
2023-03-04T03:47:57.145Z,54.83
2023-03-04T03:48:47.218Z,54.37
2023-03-04T03:49:37.297Z,53.24
2023-03-04T03:50:27.322Z,52.24
2023-03-04T03:51:17.390Z,51.91
2023-03-04T03:52:07.455Z,55.46
2023-03-04T03:52:57.706Z,58.13
2023-03-04T03:53:47.773Z,59.00
2023-03-04T03:54:37.892Z,58.19
2023-03-04T03:55:28.177Z,57.12
2023-03-04T03:56:18.224Z,56.83
2023-03-04T03:57:08.252Z,51.63
2023-03-04T03:57:58.579Z,52.08
2023-03-04T03:58:48.640Z,51.28
2023-03-04T03:59:38.738Z,46.26
2023-03-04T04:00:29.024Z,51.64
2023-03-04T04:01:19.094Z,48.45
2023-03-04T04:02:09.243Z,53.52
2023-03-04T04:02:59.213Z,50.99
2023-03-04T04:03:49.208Z,53.93
2023-03-04T04:04:39.304Z,47.72
2023-03-04T04:05:29.334Z,49.26
2023-03-04T04:06:19.416Z,51.84
2023-03-04T04:07:09.446Z,48.89
2023-03-04T04:07:59.518Z,51.14
2023-03-04T04:08:49.593Z,51.76
2023-03-04T04:09:39.908Z,52.32
2023-03-04T04:10:29.959Z,52.37
2023-03-04T04:11:19.988Z,49.95
2023-03-04T04:12:10.025Z,50.79
2023-03-04T04:13:00.060Z,44.05
2023-03-04T04:13:50.102Z,44.90
2023-03-04T04:14:40.176Z,44.92
2023-03-04T04:15:30.210Z,49.68
2023-03-04T04:16:20.295Z,43.54
2023-03-04T04:17:10.342Z,40.38
2023-03-04T04:18:00.411Z,44.50
2023-03-04T04:18:50.698Z,45.57
2023-03-04T04:19:40.792Z,48.29
2023-03-04T04:20:30.827Z,45.10
2023-03-04T04:21:21.155Z,43.88
2023-03-04T04:22:11.224Z,44.66
2023-03-04T04:23:01.305Z,45.96
2023-03-04T04:23:51.579Z,48.58
2023-03-04T04:24:41.691Z,53.86
2023-03-04T04:25:31.722Z,49.91
2023-03-04T04:26:21.766Z,49.95
2023-03-04T04:27:11.817Z,52.66
2023-03-04T04:28:01.906Z,54.38
2023-03-04T04:28:51.918Z,55.35
2023-03-04T04:29:42.032Z,55.72
2023-03-04T04:30:32.156Z,53.99
2023-03-04T04:31:22.100Z,56.00
2023-03-04T04:32:12.252Z,52.89
2023-03-04T04:33:02.510Z,56.77
2023-03-04T04:33:52.530Z,50.70
2023-03-04T04:34:42.636Z,54.50
2023-03-04T04:35:32.680Z,53.15
2023-03-04T04:36:22.763Z,52.93
2023-03-04T04:37:12.812Z,50.96
2023-03-04T04:38:02.887Z,53.03
2023-03-04T04:38:52.922Z,52.08
2023-03-04T04:39:43.026Z,49.83
2023-03-04T04:40:33.063Z,58.04
2023-03-04T04:41:23.097Z,47.87
2023-03-04T04:42:13.364Z,46.44
2023-03-04T04:43:03.403Z,44.07
2023-03-04T04:43:53.459Z,41.95
2023-03-04T04:44:43.823Z,46.99
2023-03-04T04:45:33.844Z,47.74
2023-03-04T04:46:24.027Z,47.54
2023-03-04T04:47:13.955Z,51.43
2023-03-04T04:48:04.034Z,44.80
2023-03-04T04:48:54.097Z,45.88
2023-03-04T04:49:44.185Z,42.30
2023-03-04T04:50:34.215Z,49.13
2023-03-04T04:51:24.248Z,42.85
2023-03-04T04:52:14.322Z,44.51
2023-03-04T04:53:04.380Z,42.51
2023-03-04T04:53:54.581Z,44.53
2023-03-04T04:54:44.673Z,45.80
2023-03-04T04:55:34.706Z,43.83
2023-03-04T04:56:25.035Z,42.75
2023-03-04T04:57:15.092Z,44.29
2023-03-04T04:58:05.182Z,48.84
2023-03-04T04:58:55.445Z,50.01
2023-03-04T04:59:45.540Z,45.13
2023-03-04T05:00:35.559Z,46.33
2023-03-04T05:01:25.725Z,46.28
2023-03-04T05:02:15.695Z,47.32
2023-03-04T05:03:05.835Z,47.75
2023-03-04T05:03:55.852Z,49.50
2023-03-04T05:04:45.930Z,46.09
2023-03-04T05:05:36.111Z,50.17
2023-03-04T05:06:25.996Z,50.25
2023-03-04T05:07:16.041Z,48.84
2023-03-04T05:08:06.073Z,47.17
2023-03-04T05:08:56.104Z,47.04
2023-03-04T05:09:46.204Z,49.54
2023-03-04T05:10:36.227Z,51.58
2023-03-04T05:11:26.303Z,46.87
2023-03-04T05:12:16.360Z,46.24
2023-03-04T05:13:06.431Z,48.67
2023-03-04T05:13:56.516Z,47.46
2023-03-04T05:14:46.768Z,49.22
2023-03-04T05:15:36.835Z,47.29
2023-03-04T05:16:26.856Z,48.96
2023-03-04T05:17:16.923Z,49.05
2023-03-04T05:18:06.988Z,49.22
2023-03-04T05:18:57.047Z,50.83
2023-03-04T05:19:47.157Z,50.69
2023-03-04T05:20:37.160Z,51.89
2023-03-04T05:21:27.235Z,49.52
2023-03-04T05:22:17.307Z,49.53
2023-03-04T05:23:07.383Z,52.39
2023-03-04T05:23:57.532Z,52.86
2023-03-04T05:24:47.626Z,51.37
2023-03-04T05:25:37.644Z,55.11
2023-03-04T05:26:27.717Z,55.50
2023-03-04T05:27:17.791Z,52.80
2023-03-04T05:28:07.861Z,58.36
2023-03-04T05:28:57.933Z,57.21
2023-03-04T05:29:48.035Z,57.12
2023-03-04T05:30:38.039Z,55.38
2023-03-04T05:31:28.130Z,55.53
2023-03-04T05:32:18.250Z,57.21
2023-03-04T05:33:08.353Z,56.22
2023-03-04T05:33:58.426Z,51.55
2023-03-04T05:34:48.484Z,55.51
2023-03-04T05:35:38.552Z,52.18
2023-03-04T05:36:28.565Z,50.70
2023-03-04T05:37:18.621Z,53.31
2023-03-04T05:38:08.709Z,48.47
2023-03-04T05:38:58.721Z,50.56
2023-03-04T05:39:48.806Z,53.18
2023-03-04T05:40:38.832Z,51.50
2023-03-04T05:41:28.913Z,54.38
2023-03-04T05:42:19.188Z,54.71
2023-03-04T05:43:09.250Z,54.09
2023-03-04T05:43:59.320Z,57.64
2023-03-04T05:44:49.667Z,57.53
2023-03-04T05:45:39.713Z,56.16
2023-03-04T05:46:32.333Z,57.80
2023-03-04T05:47:19.830Z,57.31
2023-03-04T05:48:10.146Z,54.36
2023-03-04T05:49:00.224Z,57.13
2023-03-04T05:49:50.293Z,56.76
2023-03-04T05:50:40.566Z,60.49
2023-03-04T05:51:30.635Z,57.32
2023-03-04T05:52:20.701Z,56.91
2023-03-04T05:53:11.030Z,63.50
2023-03-04T05:54:01.050Z,59.35
2023-03-04T05:54:51.139Z,59.49
2023-03-04T05:55:41.168Z,59.34
2023-03-04T05:56:31.246Z,57.73
2023-03-04T05:57:21.286Z,59.93
2023-03-04T05:58:11.343Z,58.01
2023-03-04T05:59:01.379Z,62.17
2023-03-04T05:59:51.470Z,60.14
2023-03-04T06:00:41.504Z,59.51
2023-03-04T06:01:31.623Z,60.96
2023-03-04T06:02:21.890Z,56.77
2023-03-04T06:03:11.909Z,59.95
2023-03-04T06:04:02.050Z,59.21
2023-03-04T06:04:52.328Z,59.42
2023-03-04T06:05:42.358Z,60.08
2023-03-04T06:06:32.405Z,59.62
2023-03-04T06:07:22.468Z,60.17
2023-03-04T06:08:12.536Z,60.17
2023-03-04T06:09:02.596Z,60.67
2023-03-04T06:09:52.699Z,58.64
2023-03-04T06:10:42.766Z,60.70
2023-03-04T06:11:35.252Z,59.35
2023-03-04T06:12:22.803Z,58.50
2023-03-04T06:13:12.873Z,59.83
2023-03-04T06:14:03.031Z,60.00
2023-03-04T06:14:53.009Z,60.78
2023-03-04T06:15:43.048Z,62.85
2023-03-04T06:16:33.132Z,61.80
2023-03-04T06:17:23.164Z,62.67
2023-03-04T06:18:13.214Z,63.06
2023-03-04T06:19:03.277Z,62.97
2023-03-04T06:19:53.367Z,64.17
2023-03-04T06:20:43.394Z,65.00
2023-03-04T06:21:33.436Z,63.55
2023-03-04T06:22:23.666Z,62.05
2023-03-04T06:23:13.801Z,60.18
2023-03-04T06:24:03.788Z,59.40
2023-03-04T06:24:53.838Z,58.34
2023-03-04T06:25:43.856Z,59.95
2023-03-04T06:26:33.920Z,57.95
2023-03-04T06:27:23.985Z,59.95
2023-03-04T06:28:14.070Z,62.35
2023-03-04T06:29:04.104Z,62.90
2023-03-04T06:29:54.214Z,62.39
2023-03-04T06:30:44.227Z,59.11
2023-03-04T06:31:34.688Z,60.97
2023-03-04T06:32:24.679Z,60.21
2023-03-04T06:33:14.625Z,60.59
2023-03-04T06:34:04.952Z,60.34
2023-03-04T06:34:55.063Z,62.77
2023-03-04T06:35:45.109Z,58.09
2023-03-04T06:36:35.408Z,58.27
2023-03-04T06:37:25.482Z,57.23
2023-03-04T06:38:15.506Z,60.23
2023-03-04T06:39:05.838Z,54.91
2023-03-04T06:39:55.937Z,58.85
2023-03-04T06:40:45.971Z,60.96
2023-03-04T06:41:36.304Z,58.82
2023-03-04T06:42:26.337Z,59.62
2023-03-04T06:43:16.409Z,58.56
2023-03-04T06:44:06.728Z,61.05
2023-03-04T06:44:56.853Z,59.74
2023-03-04T06:45:46.848Z,59.14
2023-03-04T06:46:37.284Z,57.55
2023-03-04T06:47:27.223Z,61.62
2023-03-04T06:48:17.327Z,57.45
2023-03-04T06:49:07.333Z,56.67
2023-03-04T06:49:57.430Z,55.17
2023-03-04T06:50:47.449Z,56.66
2023-03-04T06:51:37.524Z,61.00
2023-03-04T06:52:27.561Z,62.47
2023-03-04T06:53:17.662Z,417.86
2023-03-04T06:54:07.702Z,454.38
2023-03-04T06:54:57.812Z,399.32
2023-03-04T06:55:48.030Z,387.78
2023-03-04T06:56:38.083Z,348.58
2023-03-04T06:57:28.115Z,309.87
2023-03-04T06:58:18.218Z,278.81
2023-03-04T06:59:08.238Z,250.43
2023-03-04T06:59:58.296Z,234.50
2023-03-04T07:00:48.464Z,221.50
2023-03-04T07:01:38.392Z,211.41
2023-03-04T07:02:28.464Z,206.57
2023-03-04T07:03:18.543Z,200.04
2023-03-04T07:04:08.660Z,196.29
2023-03-04T07:04:58.909Z,188.27
2023-03-04T07:05:48.942Z,186.82
2023-03-04T07:06:39.035Z,184.11
2023-03-04T07:07:29.062Z,185.98
2023-03-04T07:08:21.641Z,186.95
2023-03-04T07:09:09.195Z,187.02
2023-03-04T07:09:59.285Z,187.36
2023-03-04T07:10:49.294Z,187.19
2023-03-04T07:11:39.366Z,188.97
2023-03-04T07:12:29.425Z,190.41
2023-03-04T07:13:19.531Z,191.93
2023-03-04T07:14:09.554Z,194.08
2023-03-04T07:14:59.746Z,194.88
2023-03-04T07:15:49.794Z,195.41
2023-03-04T07:16:39.884Z,192.01
2023-03-04T07:17:29.886Z,188.28
2023-03-04T07:18:19.947Z,187.85
2023-03-04T07:19:09.992Z,187.70
2023-03-04T07:20:00.112Z,183.32
2023-03-04T07:20:50.111Z,183.69
2023-03-04T07:21:40.193Z,182.16
2023-03-04T07:22:30.222Z,182.51
2023-03-04T07:23:20.301Z,178.46
2023-03-04T07:24:10.365Z,177.81
2023-03-04T07:25:00.463Z,176.74
2023-03-04T07:25:50.485Z,176.19
2023-03-04T07:26:40.544Z,171.99
2023-03-04T07:27:30.633Z,172.49
2023-03-04T07:28:20.694Z,172.31
2023-03-04T07:29:10.729Z,173.93
2023-03-04T07:30:00.826Z,172.35
2023-03-04T07:30:51.027Z,174.11
2023-03-04T07:31:41.137Z,174.01
2023-03-04T07:32:31.156Z,174.37
2023-03-04T07:33:21.190Z,170.43
2023-03-04T07:34:11.235Z,170.27
2023-03-04T07:35:01.332Z,169.80
2023-03-04T07:35:51.395Z,167.70
2023-03-04T07:36:41.429Z,165.27
2023-03-04T07:37:31.458Z,166.23
2023-03-04T07:38:21.495Z,167.54
2023-03-04T07:39:11.520Z,164.68
2023-03-04T07:40:01.609Z,163.31
2023-03-04T07:40:51.641Z,161.64
2023-03-04T07:41:41.691Z,161.30
2023-03-04T07:42:31.726Z,162.24
2023-03-04T07:43:21.811Z,160.16
2023-03-04T07:44:13.276Z,159.15
2023-03-04T07:45:01.946Z,158.87
2023-03-04T07:45:52.025Z,157.38
2023-03-04T07:46:42.061Z,157.66
2023-03-04T07:47:32.102Z,150.28
2023-03-04T07:48:22.154Z,154.21
2023-03-04T07:49:12.200Z,151.89
2023-03-04T07:50:02.306Z,152.61
2023-03-04T07:50:52.327Z,152.09
2023-03-04T07:51:42.396Z,152.31
2023-03-04T07:52:32.432Z,147.17
2023-03-04T07:53:22.478Z,149.45
2023-03-04T07:54:12.520Z,150.25
2023-03-04T07:55:02.595Z,146.36
2023-03-04T07:55:52.639Z,146.02
2023-03-04T07:56:42.676Z,145.88
2023-03-04T07:57:32.755Z,146.11
2023-03-04T07:58:22.791Z,146.51
2023-03-04T07:59:12.820Z,144.14
2023-03-04T08:00:02.893Z,144.02
2023-03-04T08:00:52.936Z,142.06
2023-03-04T08:01:44.705Z,142.19
2023-03-04T08:02:33.093Z,142.04
2023-03-04T08:03:23.098Z,140.73
2023-03-04T08:04:13.229Z,141.31
2023-03-04T08:05:03.245Z,141.49
2023-03-04T08:05:53.277Z,140.58
2023-03-04T08:06:43.366Z,139.22
2023-03-04T08:07:33.433Z,139.26
2023-03-04T08:08:23.474Z,138.43
2023-03-04T08:09:13.507Z,140.50
2023-03-04T08:10:03.829Z,137.63
2023-03-04T08:10:53.870Z,138.72
2023-03-04T08:11:43.933Z,139.71
2023-03-04T08:12:33.980Z,138.04
2023-03-04T08:13:25.851Z,137.98
2023-03-04T08:14:14.062Z,135.63
2023-03-04T08:15:04.100Z,136.92
2023-03-04T08:15:54.195Z,136.54
2023-03-04T08:16:44.263Z,133.90
2023-03-04T08:17:34.266Z,134.82
2023-03-04T08:18:24.352Z,134.73
2023-03-04T08:19:14.400Z,135.87
2023-03-04T08:20:04.484Z,135.22
2023-03-04T08:20:54.806Z,133.07
2023-03-04T08:21:44.906Z,135.79
2023-03-04T08:22:34.966Z,136.31
2023-03-04T08:23:25.046Z,135.49
2023-03-04T08:24:15.053Z,135.11
2023-03-04T08:25:05.074Z,135.11
2023-03-04T08:25:55.112Z,135.83
2023-03-04T08:26:45.200Z,135.18
2023-03-04T08:27:35.213Z,136.29
2023-03-04T08:28:25.294Z,136.37
2023-03-04T08:29:15.322Z,136.19
2023-03-04T08:30:05.672Z,135.69
2023-03-04T08:30:55.732Z,134.76
2023-03-04T08:31:48.194Z,135.07
2023-03-04T08:32:36.008Z,135.49
2023-03-04T08:33:25.921Z,133.80
2023-03-04T08:34:15.966Z,135.18
2023-03-04T08:35:06.046Z,133.65
2023-03-04T08:35:56.114Z,131.46
2023-03-04T08:36:46.142Z,132.61
2023-03-04T08:37:36.166Z,133.37
2023-03-04T08:38:26.274Z,131.85
2023-03-04T08:39:16.268Z,130.42
2023-03-04T08:40:06.369Z,129.76
2023-03-04T08:40:56.402Z,130.44
2023-03-04T08:41:46.500Z,130.25
2023-03-04T08:42:36.566Z,131.62
2023-03-04T08:43:26.644Z,130.27
2023-03-04T08:44:16.685Z,128.87
2023-03-04T08:45:06.760Z,129.36
2023-03-04T08:45:56.856Z,129.37
2023-03-04T08:46:46.892Z,127.98
2023-03-04T08:47:36.917Z,129.42
2023-03-04T08:48:26.964Z,127.69
2023-03-04T08:49:16.997Z,129.50
2023-03-04T08:50:07.050Z,126.81
2023-03-04T08:50:57.081Z,127.94
2023-03-04T08:51:47.175Z,129.05
2023-03-04T08:52:37.215Z,127.52
2023-03-04T08:53:27.258Z,129.36
2023-03-04T08:54:17.307Z,128.84
2023-03-04T08:55:07.318Z,127.39
2023-03-04T08:55:57.355Z,126.98
2023-03-04T08:56:47.455Z,127.84
2023-03-04T08:57:37.490Z,122.22
2023-03-04T08:58:27.535Z,125.90
2023-03-04T08:59:17.577Z,126.45
2023-03-04T09:00:07.604Z,124.55
2023-03-04T09:00:57.634Z,124.29
2023-03-04T09:01:47.783Z,124.90
2023-03-04T09:02:37.718Z,125.03
2023-03-04T09:03:27.875Z,123.61
2023-03-04T09:04:17.862Z,122.97
2023-03-04T09:05:07.908Z,122.53
2023-03-04T09:05:57.933Z,119.68
2023-03-04T09:06:48.018Z,117.80
2023-03-04T09:07:38.013Z,116.50
2023-03-04T09:08:28.057Z,116.04
2023-03-04T09:09:18.095Z,112.63
2023-03-04T09:10:08.200Z,115.20
2023-03-04T09:10:58.220Z,116.31
2023-03-04T09:11:48.306Z,117.37
2023-03-04T09:12:38.318Z,119.04
2023-03-04T09:13:28.342Z,121.88
2023-03-04T09:14:18.376Z,122.19
2023-03-04T09:15:11.527Z,123.83
2023-03-04T09:15:58.587Z,123.89
2023-03-04T09:16:48.650Z,123.94
2023-03-04T09:17:38.691Z,124.26
2023-03-04T09:18:28.717Z,123.51
2023-03-04T09:19:19.048Z,123.99
2023-03-04T09:20:09.129Z,122.81
2023-03-04T09:20:59.153Z,123.75
2023-03-04T09:21:49.522Z,124.29
2023-03-04T09:22:39.564Z,125.39
2023-03-04T09:23:29.629Z,125.30
2023-03-04T09:24:19.656Z,124.36
2023-03-04T09:25:12.913Z,122.03
2023-03-04T09:25:59.847Z,122.05
2023-03-04T09:26:49.914Z,122.07
2023-03-04T09:27:39.934Z,122.32
2023-03-04T09:28:30.003Z,122.09
2023-03-04T09:29:20.327Z,121.17
2023-03-04T09:30:10.401Z,122.33
2023-03-04T09:31:00.452Z,121.77
2023-03-04T09:31:50.476Z,120.66
2023-03-04T09:32:40.513Z,117.86
2023-03-04T09:33:30.563Z,118.73
2023-03-04T09:34:20.626Z,117.50
2023-03-04T09:35:10.704Z,119.35
2023-03-04T09:36:00.917Z,116.78
2023-03-04T09:36:50.841Z,117.35
2023-03-04T09:37:41.747Z,118.08
2023-03-04T09:38:31.178Z,118.82
2023-03-04T09:39:21.245Z,115.80
2023-03-04T09:40:11.297Z,115.41
2023-03-04T09:41:01.350Z,117.48
2023-03-04T09:41:51.435Z,119.06
2023-03-04T09:42:41.441Z,116.53
2023-03-04T09:43:31.482Z,116.44
2023-03-04T09:44:21.513Z,115.20
2023-03-04T09:45:11.585Z,115.80
2023-03-04T09:46:01.650Z,115.69
2023-03-04T09:46:51.930Z,114.42
2023-03-04T09:47:42.029Z,115.67
2023-03-04T09:48:32.080Z,113.99
2023-03-04T09:49:22.100Z,114.84
2023-03-04T09:50:12.189Z,114.73
2023-03-04T09:51:02.232Z,114.61
2023-03-04T09:51:52.298Z,115.76
2023-03-04T09:52:42.326Z,111.70
2023-03-04T09:53:32.371Z,113.89
2023-03-04T09:54:22.456Z,112.30
2023-03-04T09:55:12.522Z,112.89
2023-03-04T09:56:02.558Z,110.77
2023-03-04T09:56:52.942Z,108.81
2023-03-04T09:57:42.956Z,110.06
2023-03-04T09:58:33.044Z,108.93
2023-03-04T09:59:23.071Z,108.43
2023-03-04T10:00:13.165Z,109.06
2023-03-04T10:01:05.189Z,106.51
2023-03-04T10:01:53.274Z,107.40
2023-03-04T10:02:43.313Z,106.36
2023-03-04T10:03:33.474Z,105.28
2023-03-04T10:04:23.531Z,107.22
2023-03-04T10:05:13.516Z,105.86
2023-03-04T10:06:03.834Z,104.14
2023-03-04T10:06:53.880Z,104.32
2023-03-04T10:07:43.901Z,106.39
2023-03-04T10:08:33.956Z,104.59
2023-03-04T10:09:23.981Z,104.46
2023-03-04T10:10:14.062Z,102.96
2023-03-04T10:11:04.095Z,102.61
2023-03-04T10:11:54.217Z,99.91
2023-03-04T10:12:44.242Z,101.41
2023-03-04T10:13:34.245Z,100.43
2023-03-04T10:14:24.291Z,100.45
2023-03-04T10:15:14.341Z,96.90
2023-03-04T10:16:04.416Z,99.96
2023-03-04T10:16:54.447Z,98.34
2023-03-04T10:17:44.536Z,99.48
2023-03-04T10:18:34.545Z,100.66
2023-03-04T10:19:24.635Z,98.64
2023-03-04T10:20:14.686Z,98.85
2023-03-04T10:21:04.714Z,100.47
2023-03-04T10:21:54.771Z,100.97
2023-03-04T10:22:44.820Z,98.26
2023-03-04T10:23:34.876Z,99.18
2023-03-04T10:24:24.910Z,99.85
2023-03-04T10:25:14.986Z,100.50
2023-03-04T10:26:05.028Z,99.37
2023-03-04T10:26:55.102Z,100.70
2023-03-04T10:27:45.134Z,98.88
2023-03-04T10:28:35.200Z,99.70
2023-03-04T10:29:25.221Z,98.17
2023-03-04T10:30:15.259Z,101.52
2023-03-04T10:31:05.285Z,99.88
2023-03-04T10:31:55.451Z,102.43
2023-03-04T10:32:45.406Z,99.46
2023-03-04T10:33:35.448Z,100.38
2023-03-04T10:34:25.468Z,100.07
2023-03-04T10:35:15.555Z,99.24
2023-03-04T10:36:05.683Z,100.17
2023-03-04T10:36:55.736Z,100.42
2023-03-04T10:37:45.736Z,100.40